Time;durP1;ratioP1;P1;durP2;ratioP2;P2;SDS_P1;SDS_P2;PMS_P1;PMS_P2;Temp;Humidity;BMP_temperature;BMP_pressure;BME280_temperature;BME280_humidity;BME280_pressure;Samples;Min_cycle;Max_cycle;Signal;HPM_P1;HPM_P2
2023/05/15 00:02:13;;;;;;;23.75;12.00;;;;;;;24.90;50.02;97703.31;5068362;28;20075;-58
2023/05/15 00:04:42;;;;;;;27.75;12.88;;;;;;;24.88;50.57;97700.09;5077070;28;20055;-57
2023/05/15 00:07:11;;;;;;;22.55;12.32;;;;;;;24.85;51.17;97701.50;5088128;28;20139;-58
2023/05/15 00:09:40;;;;;;;24.45;12.73;;;;;;;24.83;50.74;97703.72;5088217;28;20052;-58
2023/05/15 00:12:10;;;;;;;25.27;12.82;;;;;;;24.79;50.74;97708.16;5066864;28;20052;-58
2023/05/15 00:14:40;;;;;;;26.25;11.70;;;;;;;24.79;51.40;97708.16;5039046;28;20052;-58
2023/05/15 00:17:11;;;;;;;28.77;12.68;;;;;;;24.77;51.36;97718.50;5070450;28;20154;-57
2023/05/15 00:19:40;;;;;;;26.95;11.68;;;;;;;24.76;52.00;97706.06;5089248;28;20063;-58
2023/05/15 00:22:10;;;;;;;23.42;12.00;;;;;;;24.77;52.36;97715.00;5088780;28;20055;-58
2023/05/15 00:24:39;;;;;;;22.00;12.10;;;;;;;24.76;52.08;97706.06;5088124;28;20055;-57
2023/05/15 00:27:09;;;;;;;22.15;12.45;;;;;;;24.79;52.51;97712.75;5068368;28;20052;-57
2023/05/15 00:29:38;;;;;;;22.73;13.50;;;;;;;24.77;51.99;97718.50;5062725;28;20074;-57
2023/05/15 00:32:08;;;;;;;32.22;14.32;;;;;;;24.77;50.77;97721.22;5068592;28;20055;-59
2023/05/15 00:34:38;;;;;;;25.63;14.27;;;;;;;24.78;51.72;97720.13;5069305;28;20052;-57
2023/05/15 00:37:07;;;;;;;29.60;15.05;;;;;;;24.84;51.76;97728.88;5068980;28;20508;-58
2023/05/15 00:39:38;;;;;;;31.92;15.63;;;;;;;24.86;52.52;97727.53;5069247;28;20060;-58
2023/05/15 00:42:09;;;;;;;30.35;14.75;;;;;;;24.92;52.44;97726.28;5068712;28;20528;-58
2023/05/15 00:44:40;;;;;;;25.33;15.30;;;;;;;24.96;52.11;97729.97;5069534;28;20737;-59
2023/05/15 00:47:13;;;;;;;35.55;16.42;;;;;;;24.98;51.74;97733.16;5086978;28;20072;-59
2023/05/15 00:49:44;;;;;;;30.00;14.77;;;;;;;24.99;51.59;97732.06;5070359;28;20144;-58
2023/05/15 00:52:14;;;;;;;27.45;13.77;;;;;;;25.08;51.75;97736.72;5065318;28;20404;-59
2023/05/15 00:54:43;;;;;;;32.17;14.10;;;;;;;25.10;51.90;97740.72;5070258;28;20051;-58
2023/05/15 00:57:14;;;;;;;31.15;15.07;;;;;;;25.15;52.09;97745.22;5067752;28;20154;-59
2023/05/15 00:59:45;;;;;;;31.23;15.02;;;;;;;25.18;51.92;97748.09;5050432;28;20380;-60
2023/05/15 01:02:17;;;;;;;27.65;14.23;;;;;;;25.24;52.35;97754.19;5057727;28;20048;-58
2023/05/15 01:04:47;;;;;;;31.98;14.40;;;;;;;25.26;52.97;97747.38;5054485;28;20051;-58
2023/05/15 01:07:16;;;;;;;25.30;13.60;;;;;;;25.34;53.21;97760.16;5065914;28;20040;-58
2023/05/15 01:09:48;;;;;;;24.70;13.65;;;;;;;25.36;53.58;97755.22;5063783;28;20048;-60
2023/05/15 01:12:18;;;;;;;32.35;14.15;;;;;;;25.44;54.01;97765.31;5086720;28;20048;-59
2023/05/15 01:14:49;;;;;;;32.75;14.07;;;;;;;25.50;54.35;97765.97;5056117;28;20058;-58
2023/05/15 01:17:19;;;;;;;30.77;14.30;;;;;;;25.58;54.07;97767.19;5069645;28;20044;-59
2023/05/15 01:19:50;;;;;;;34.08;15.10;;;;;;;25.66;54.31;97767.22;5069634;28;20055;-58
2023/05/15 01:22:49;;;;;;;31.13;14.77;;;;;;;25.73;55.01;97770.25;5069131;28;20044;-58
2023/05/15 01:25:52;;;;;;;26.98;13.40;;;;;;;25.83;56.39;97780.84;5069238;28;20059;-58
2023/05/15 01:28:36;;;;;;;32.60;14.55;;;;;;;25.92;56.43;97787.09;5069299;28;20055;-58
2023/05/15 01:31:12;;;;;;;25.23;12.77;;;;;;;26.01;56.01;97791.75;5086075;28;20051;-59
2023/05/15 01:33:46;;;;;;;30.30;13.95;;;;;;;26.15;56.21;97797.84;5069091;28;20048;-59
2023/05/15 01:36:20;;;;;;;30.02;13.88;;;;;;;26.28;57.42;97795.06;5086862;28;20391;-58
2023/05/15 01:38:56;;;;;;;32.00;15.20;;;;;;;26.39;56.62;97800.97;5069048;28;20058;-58
2023/05/15 01:41:59;;;;;;;24.33;14.18;;;;;;;26.64;56.49;97805.63;5086947;28;20059;-57
2023/05/15 01:44:31;;;;;;;32.58;13.88;;;;;;;27.05;55.25;97804.38;5066393;28;20751;-57
2023/05/15 01:47:11;;;;;;;30.13;14.23;;;;;;;27.61;53.09;97804.16;5069198;28;20120;-57
2023/05/15 01:49:45;;;;;;;26.08;13.57;;;;;;;28.06;51.00;97798.19;5068407;28;20129;-58
2023/05/15 01:52:33;;;;;;;31.13;14.60;;;;;;;28.46;50.19;97813.03;5062241;28;20040;-58
2023/05/15 01:55:05;;;;;;;35.42;15.95;;;;;;;28.90;51.38;97811.63;5064926;28;20064;-60
2023/05/15 01:57:35;;;;;;;37.15;19.20;;;;;;;29.15;51.39;97817.19;5086964;28;20048;-58
2023/05/15 02:00:07;;;;;;;29.05;18.90;;;;;;;29.41;51.30;97821.28;5068139;28;20071;-57
2023/05/15 02:02:43;;;;;;;45.03;23.58;;;;;;;29.64;50.79;97813.50;5086257;28;20060;-57
2023/05/15 02:05:13;;;;;;;59.65;28.95;;;;;;;29.83;50.78;97813.75;5067169;28;20044;-58
2023/05/15 02:07:45;;;;;;;60.22;37.03;;;;;;;29.97;49.06;97818.13;5085017;28;20105;-57
2023/05/15 02:10:17;;;;;;;74.28;42.45;;;;;;;30.11;47.13;97822.13;5085249;28;20093;-58
2023/05/15 02:12:49;;;;;;;75.97;47.00;;;;;;;30.32;45.75;97819.25;5068515;28;20048;-55
2023/05/15 02:15:22;;;;;;;96.65;52.58;;;;;;;30.20;44.97;97820.06;5060226;28;20081;-58
2023/05/15 02:17:52;;;;;;;89.28;53.20;;;;;;;29.48;46.35;97822.66;5085599;28;20063;-58
2023/05/15 02:20:22;;;;;;;98.90;59.35;;;;;;;28.90;45.06;97829.94;5065266;28;20588;-58
2023/05/15 02:22:52;;;;;;;110.68;63.42;;;;;;;28.81;46.05;97840.88;5068193;28;20044;-59
2023/05/15 02:25:32;;;;;;;113.50;64.70;;;;;;;29.43;43.04;97840.84;5068173;28;20135;-53
2023/05/15 02:28:05;;;;;;;115.15;64.85;;;;;;;29.62;39.04;97836.81;5068857;28;20044;-56
2023/05/15 02:30:40;;;;;;;111.43;65.45;;;;;;;30.02;39.62;97835.09;5068104;28;20127;-58
2023/05/15 02:33:37;;;;;;;116.57;66.72;;;;;;;30.13;37.98;97844.44;5085178;28;20073;-57
2023/05/15 02:36:08;;;;;;;118.60;68.55;;;;;;;29.64;41.00;97840.00;5064508;28;20252;-58
2023/05/15 02:38:48;;;;;;;119.53;68.68;;;;;;;29.42;38.43;97844.72;5068499;28;20056;-57
2023/05/15 02:41:20;;;;;;;125.82;67.35;;;;;;;29.16;40.97;97846.88;5066887;28;20082;-57
2023/05/15 02:43:54;;;;;;;127.88;70.53;;;;;;;28.95;41.44;97856.97;5081954;28;20048;-58
2023/05/15 02:46:24;;;;;;;122.18;72.70;;;;;;;29.02;45.56;97857.25;5050743;28;20531;-58
2023/05/15 02:48:54;;;;;;;125.40;71.47;;;;;;;29.69;43.70;97864.34;5048356;28;20472;-57
2023/05/15 02:51:25;;;;;;;120.40;70.45;;;;;;;29.79;43.35;97866.63;5051057;28;20765;-59
2023/05/15 02:53:54;;;;;;;117.40;68.03;;;;;;;30.00;41.79;97867.41;5076386;28;20053;-59
2023/05/15 02:56:24;;;;;;;114.40;66.70;;;;;;;29.89;43.65;97879.91;5053753;28;20726;-58
2023/05/15 02:58:55;;;;;;;116.40;63.35;;;;;;;29.49;41.83;97878.84;5056049;28;20047;-58
2023/05/15 03:01:25;;;;;;;93.30;54.65;;;;;;;29.51;41.75;97876.59;5057114;28;20063;-54
2023/05/15 03:03:54;;;;;;;85.40;50.95;;;;;;;30.06;40.43;97878.88;5058851;28;20052;-58
2023/05/15 03:06:24;;;;;;;77.28;44.92;;;;;;;30.43;38.06;97877.78;5054802;28;20067;-58
2023/05/15 03:08:53;;;;;;;63.58;37.42;;;;;;;30.70;36.49;97884.50;5072732;28;20424;-57
2023/05/15 03:11:23;;;;;;;57.40;33.65;;;;;;;31.13;36.22;97887.41;5062994;28;20063;-58
2023/05/15 03:13:52;;;;;;;58.15;35.22;;;;;;;31.20;35.04;97887.59;5081358;28;20063;-58
2023/05/15 03:16:23;;;;;;;64.28;36.92;;;;;;;31.33;35.22;97887.59;5051231;28;20052;-56
2023/05/15 03:18:53;;;;;;;62.78;36.05;;;;;;;31.26;35.89;97903.78;5065316;28;20372;-56
2023/05/15 03:21:22;;;;;;;65.25;36.80;;;;;;;31.29;36.30;97906.63;5046726;28;20044;-57
2023/05/15 03:23:52;;;;;;;68.03;39.55;;;;;;;31.34;36.81;97902.84;5047328;28;20052;-60
2023/05/15 03:26:21;;;;;;;68.50;38.20;;;;;;;31.25;36.02;97896.75;5063161;28;20054;-58
2023/05/15 03:28:51;;;;;;;53.95;31.88;;;;;;;31.11;34.76;97891.66;5067746;28;20486;-58
2023/05/15 03:31:21;;;;;;;43.42;27.00;;;;;;;31.16;35.67;97908.59;5066568;28;20163;-58
2023/05/15 03:33:51;;;;;;;45.22;24.63;;;;;;;31.08;35.76;97917.75;5066259;28;20052;-57
2023/05/15 03:36:21;;;;;;;41.30;25.55;;;;;;;31.01;37.96;97908.53;5083479;28;20052;-58
2023/05/15 03:38:51;;;;;;;47.30;26.15;;;;;;;30.97;37.42;97902.94;5066591;28;20723;-58
2023/05/15 03:41:21;;;;;;;42.28;22.98;;;;;;;31.03;36.55;97901.56;5062193;28;20771;-58
2023/05/15 03:43:50;;;;;;;49.25;22.90;;;;;;;30.87;36.84;97889.72;5062818;28;20397;-59
2023/05/15 03:46:21;;;;;;;43.33;22.00;;;;;;;30.55;36.31;97894.19;5078101;28;20128;-58
2023/05/15 03:48:50;;;;;;;37.30;20.38;;;;;;;30.45;37.71;97902.84;5067288;28;20372;-59
2023/05/15 03:51:22;;;;;;;34.95;18.67;;;;;;;30.64;38.25;97907.75;5061299;28;20456;-58
2023/05/15 03:53:53;;;;;;;38.57;17.77;;;;;;;31.05;38.44;97912.97;5020944;28;20048;-58
2023/05/15 03:56:23;;;;;;;32.83;17.50;;;;;;;30.89;39.35;97911.28;5079361;28;20044;-58
2023/05/15 03:58:52;;;;;;;31.73;16.33;;;;;;;30.81;38.66;97893.81;5064425;28;20048;-59
2023/05/15 04:01:22;;;;;;;37.72;15.48;;;;;;;30.54;39.10;97894.53;5076948;28;20059;-58
2023/05/15 04:03:54;;;;;;;22.38;12.48;;;;;;;30.41;37.60;97912.03;5066364;28;20054;-56
2023/05/15 04:06:23;;;;;;;21.13;11.55;;;;;;;30.28;37.81;97925.69;5083281;28;20515;-58
2023/05/15 04:08:53;;;;;;;18.25;10.75;;;;;;;30.33;39.58;97938.34;5088366;28;20064;-58
2023/05/15 04:11:22;;;;;;;24.10;10.48;;;;;;;30.20;41.99;97940.28;5090506;28;20056;-58
2023/05/15 04:13:52;;;;;;;24.33;11.10;;;;;;;30.08;41.22;97937.53;5089380;28;20040;-59
2023/05/15 04:16:22;;;;;;;21.38;10.65;;;;;;;30.01;40.46;97937.25;5091243;28;20124;-59
2023/05/15 04:18:51;;;;;;;20.05;11.38;;;;;;;30.00;40.38;97946.63;5089011;28;20442;-58
2023/05/15 04:21:20;;;;;;;16.77;10.10;;;;;;;30.15;42.55;97953.34;5088290;28;20124;-57
2023/05/15 04:23:50;;;;;;;23.83;10.90;;;;;;;30.32;40.64;97951.22;5088677;28;20048;-58
2023/05/15 04:26:19;;;;;;;23.15;11.15;;;;;;;30.42;41.07;97949.16;5081753;28;20600;-58
2023/05/15 04:28:49;;;;;;;25.00;12.07;;;;;;;30.64;39.66;97946.03;5079876;28;20079;-57
2023/05/15 04:31:31;;;;;;;25.02;10.65;;;;;;;30.75;40.12;97947.97;5088576;28;20539;-57
2023/05/15 04:34:00;;;;;;;23.50;10.60;;;;;;;31.14;38.81;97954.69;5071820;28;20110;-57
2023/05/15 04:36:30;;;;;;;21.90;10.95;;;;;;;31.55;37.78;97948.09;5059616;28;20106;-56
2023/05/15 04:39:11;;;;;;;28.80;12.25;;;;;;;31.88;37.47;97949.75;5068164;28;20238;-60
2023/05/15 04:41:41;;;;;;;22.73;10.38;;;;;;;31.88;36.27;97953.31;5064538;28;20483;-59
2023/05/15 04:44:12;;;;;;;26.98;10.73;;;;;;;32.05;35.77;97955.72;5047451;28;20417;-59
2023/05/15 04:46:41;;;;;;;23.73;10.00;;;;;;;32.20;35.53;97953.38;5039932;28;20056;-59
2023/05/15 04:49:11;;;;;;;26.27;9.98;;;;;;;32.38;36.86;97949.16;5080889;28;20055;-58
2023/05/15 04:51:43;;;;;;;22.20;10.63;;;;;;;32.35;37.62;97955.34;5069762;28;20041;-59
2023/05/15 04:54:13;;;;;;;21.08;9.75;;;;;;;32.27;36.48;97948.06;5075039;28;20433;-60
2023/05/15 04:56:45;;;;;;;23.90;9.77;;;;;;;32.48;36.26;97949.44;5070132;28;20048;-60
2023/05/15 04:59:16;;;;;;;17.15;9.40;;;;;;;32.72;35.36;97958.63;5042279;28;20071;-59
2023/05/15 05:01:46;;;;;;;20.80;9.35;;;;;;;32.79;35.02;97951.38;5056363;28;20051;-59
2023/05/15 05:04:18;;;;;;;19.30;9.80;;;;;;;32.94;34.16;97939.56;5057717;28;20668;-58
2023/05/15 05:06:47;;;;;;;27.52;11.00;;;;;;;32.80;34.06;97958.44;5060481;28;20067;-59
2023/05/15 05:09:18;;;;;;;19.05;10.70;;;;;;;32.96;33.87;97959.22;5065365;28;20052;-59
2023/05/15 05:11:49;;;;;;;17.63;9.77;;;;;;;32.95;34.82;97948.59;5075749;28;20052;-61
2023/05/15 05:14:19;;;;;;;18.83;10.63;;;;;;;33.24;36.06;97963.75;5066793;28;20313;-60
2023/05/15 05:16:48;;;;;;;27.75;10.65;;;;;;;33.33;36.95;97962.41;5072807;28;20052;-60
2023/05/15 05:19:17;;;;;;;25.30;11.52;;;;;;;33.86;33.75;97967.44;5086208;28;20745;-59
2023/05/15 05:21:47;;;;;;;27.25;12.25;;;;;;;34.23;32.54;97957.56;5064485;28;20073;-59
2023/05/15 05:24:17;;;;;;;23.83;11.48;;;;;;;34.72;33.59;97963.94;5036057;28;20045;-59
2023/05/15 05:26:49;;;;;;;31.13;12.60;;;;;;;34.80;32.46;97967.56;5016631;28;20903;-60
2023/05/15 05:29:20;;;;;;;24.25;12.55;;;;;;;34.70;31.72;97966.25;5069026;28;20055;-59
2023/05/15 05:31:50;;;;;;;25.52;13.30;;;;;;;34.53;31.88;97963.16;5082447;28;20055;-58
2023/05/15 05:34:20;;;;;;;28.90;13.80;;;;;;;34.28;32.54;97963.56;5058914;28;20051;-58
2023/05/15 05:36:51;;;;;;;29.48;14.68;;;;;;;34.37;32.43;97966.06;5083694;28;20048;-59
2023/05/15 05:39:21;;;;;;;34.28;15.73;;;;;;;33.83;34.16;97966.22;5083662;28;20668;-58
2023/05/15 05:41:51;;;;;;;37.20;19.08;;;;;;;33.82;34.12;97968.16;5087452;28;20055;-61
2023/05/15 05:44:20;;;;;;;35.30;20.33;;;;;;;33.58;35.21;97967.63;5086539;28;20101;-58
2023/05/15 05:46:51;;;;;;;44.65;20.65;;;;;;;33.61;36.16;97972.41;5080778;28;20732;-61
2023/05/15 05:49:21;;;;;;;37.78;20.45;;;;;;;33.32;36.00;97968.28;5085292;28;20044;-61
2023/05/15 05:52:05;;;;;;;41.70;20.00;;;;;;;33.32;36.69;97968.28;5086951;28;20134;-60
2023/05/15 05:54:34;;;;;;;37.53;20.25;;;;;;;33.21;36.40;97970.78;5076485;28;20067;-60
2023/05/15 05:57:06;;;;;;;41.15;21.52;;;;;;;33.12;35.79;97963.88;5079405;28;20048;-61
2023/05/15 05:59:36;;;;;;;39.40;22.85;;;;;;;33.13;35.77;97965.47;5072059;28;20052;-60
2023/05/15 06:02:07;;;;;;;42.83;25.08;;;;;;;33.14;37.27;97958.81;5069464;28;20149;-60
2023/05/15 06:04:37;;;;;;;50.22;24.38;;;;;;;33.17;39.65;97958.94;5066537;28;20539;-59
2023/05/15 06:07:07;;;;;;;50.88;26.13;;;;;;;33.15;39.26;97955.72;5057146;28;20135;-60
2023/05/15 06:09:36;;;;;;;50.25;26.20;;;;;;;33.11;39.44;97951.28;5058785;28;20048;-60
2023/05/15 06:12:08;;;;;;;45.33;25.45;;;;;;;33.26;40.43;97955.97;5069577;28;20124;-60
2023/05/15 06:14:42;;;;;;;41.15;24.58;;;;;;;33.46;38.12;97946.59;5087686;28;20104;-60
2023/05/15 06:17:13;;;;;;;46.35;25.58;;;;;;;33.34;36.09;97947.53;5075064;28;20363;-60
2023/05/15 06:19:42;;;;;;;42.17;24.13;;;;;;;33.09;35.60;97945.38;5086798;28;20479;-61
2023/05/15 06:22:12;;;;;;;42.35;23.98;;;;;;;33.17;36.87;97942.47;5085863;28;20056;-60
2023/05/15 06:24:45;;;;;;;48.50;24.40;;;;;;;33.53;34.70;97933.00;5086454;28;20051;-60
2023/05/15 06:27:17;;;;;;;48.33;26.13;;;;;;;33.30;35.07;97937.63;5086286;28;20517;-61
2023/05/15 06:29:50;;;;;;;41.97;22.73;;;;;;;33.42;34.62;97932.78;5086879;28;20491;-62
2023/05/15 06:32:19;;;;;;;42.03;23.13;;;;;;;33.47;34.97;97933.66;5085975;28;20769;-59
2023/05/15 06:34:49;;;;;;;46.40;24.15;;;;;;;33.68;36.27;97937.66;5085986;28;20147;-62
2023/05/15 06:37:24;;;;;;;38.15;23.58;;;;;;;33.69;36.22;97928.25;5085056;28;20040;-60
2023/05/15 06:39:55;;;;;;;34.60;19.17;;;;;;;33.58;34.76;97929.97;5084931;28;20055;-61
2023/05/15 06:42:24;;;;;;;26.60;18.70;;;;;;;33.51;35.22;97924.34;5085901;28;20055;-60
2023/05/15 06:44:56;;;;;;;32.20;18.83;;;;;;;33.74;33.84;97919.72;5085091;28;20059;-62
2023/05/15 06:47:27;;;;;;;35.33;17.10;;;;;;;33.75;33.27;97917.78;5074850;28;20069;-60
2023/05/15 06:49:56;;;;;;;25.55;16.17;;;;;;;33.79;33.33;97913.94;5084889;28;20048;-60
2023/05/15 06:52:26;;;;;;;33.88;16.60;;;;;;;33.93;31.60;97907.13;5073146;28;20040;-59
2023/05/15 06:54:56;;;;;;;33.13;16.77;;;;;;;33.90;31.24;97910.59;5085267;28;20071;-59
2023/05/15 06:57:26;;;;;;;39.83;17.85;;;;;;;33.77;31.94;97899.75;5086797;28;20051;-58
2023/05/15 06:59:55;;;;;;;33.22;17.90;;;;;;;33.62;31.75;97892.41;5086284;28;20053;-60
2023/05/15 07:02:31;;;;;;;31.65;18.08;;;;;;;33.70;33.08;97896.88;5083206;28;20064;-60
2023/05/15 07:05:01;;;;;;;38.03;18.55;;;;;;;33.59;31.74;97892.34;5086033;28;20059;-60
2023/05/15 07:07:32;;;;;;;33.35;18.38;;;;;;;33.96;32.11;97884.38;5084634;28;20048;-62
2023/05/15 07:10:09;;;;;;;33.85;17.75;;;;;;;33.67;33.05;97883.88;5083650;28;20055;-60
2023/05/15 07:12:40;;;;;;;40.00;18.25;;;;;;;33.54;32.87;97879.69;5084307;28;20056;-59
2023/05/15 07:15:10;;;;;;;30.00;17.00;;;;;;;33.45;32.42;97879.13;5084154;28;20715;-60
2023/05/15 07:17:40;;;;;;;29.27;16.98;;;;;;;33.51;32.51;97880.41;5084199;28;20435;-60
2023/05/15 07:20:10;;;;;;;24.83;14.48;;;;;;;33.40;31.45;97871.16;5083288;28;20151;-59
2023/05/15 07:22:40;;;;;;;24.02;13.18;;;;;;;33.39;31.09;97866.81;5083880;28;20071;-59
2023/05/15 07:25:24;;;;;;;20.42;11.35;;;;;;;33.32;33.91;97866.69;5073285;28;20127;-58
2023/05/15 07:27:55;;;;;;;22.70;10.80;;;;;;;33.25;33.08;97866.53;5085604;28;20075;-58
2023/05/15 07:30:25;;;;;;;21.25;9.88;;;;;;;33.26;35.32;97865.38;5069539;28;20040;-59
2023/05/15 07:32:55;;;;;;;19.10;9.52;;;;;;;33.14;33.65;97862.75;5066449;28;20048;-62
2023/05/15 07:35:25;;;;;;;18.80;8.93;;;;;;;33.09;33.71;97863.03;5054485;28;20469;-60
2023/05/15 07:37:57;;;;;;;23.90;10.55;;;;;;;33.11;35.22;97863.47;5065400;28;20040;-59
2023/05/15 07:40:27;;;;;;;21.50;9.82;;;;;;;33.07;33.91;97854.38;5053271;28;20095;-59
2023/05/15 07:42:57;;;;;;;22.73;10.10;;;;;;;33.21;32.18;97855.50;5058385;28;20530;-60
2023/05/15 07:45:27;;;;;;;16.70;9.38;;;;;;;33.36;34.00;97857.38;5058642;28;20550;-58
2023/05/15 07:48:13;;;;;;;22.52;9.32;;;;;;;33.48;34.67;97853.66;5058673;28;20140;-59
2023/05/15 07:50:45;;;;;;;24.93;11.03;;;;;;;33.34;32.01;97851.44;5056010;28;20055;-57
2023/05/15 07:53:18;;;;;;;26.30;10.63;;;;;;;33.04;30.77;97846.88;5055439;28;20072;-60
2023/05/15 07:55:48;;;;;;;;;;;;;;;33.26;27.43;97846.97;5043696;28;20048;-61
2023/05/15 07:58:17;;;;;;;14.65;8.45;;;;;;;33.58;28.90;97842.09;5067962;28;19974;-59
2023/05/15 08:00:50;;;;;;;17.73;7.22;;;;;;;33.39;29.36;97834.69;5061845;28;20052;-58
2023/05/15 08:03:20;;;;;;;11.95;5.95;;;;;;;33.33;30.18;97836.13;5058584;28;20048;-59
2023/05/15 08:05:51;;;;;;;14.70;6.88;;;;;;;33.20;29.78;97840.16;5054092;28;20060;-58
2023/05/15 08:08:21;;;;;;;14.07;6.30;;;;;;;33.18;31.74;97828.78;5066301;28;20044;-59
2023/05/15 08:10:51;;;;;;;12.50;4.80;;;;;;;33.14;32.14;97832.56;5069021;28;20040;-59
2023/05/15 08:13:21;;;;;;;16.00;5.43;;;;;;;32.98;32.22;97827.13;5068394;28;20041;-58
2023/05/15 08:15:50;;;;;;;10.82;5.75;;;;;;;32.89;30.79;97819.13;5067482;28;20376;-58
2023/05/15 08:18:22;;;;;;;10.20;5.85;;;;;;;32.91;31.93;97818.78;5067884;28;20056;-60
2023/05/15 08:20:55;;;;;;;18.33;7.38;;;;;;;32.89;29.73;97816.38;5052571;28;20050;-59
2023/05/15 08:23:25;;;;;;;16.83;6.88;;;;;;;32.97;29.50;97812.63;5068444;28;20692;-59
2023/05/15 08:25:55;;;;;;;16.13;6.70;;;;;;;32.98;28.60;97810.69;5057341;28;20051;-58
2023/05/15 08:28:24;;;;;;;10.38;6.28;;;;;;;33.08;31.44;97812.06;5066549;28;20447;-60
2023/05/15 08:31:07;;;;;;;13.27;6.80;;;;;;;33.09;33.62;97799.94;5048311;28;20045;-59
2023/05/15 08:33:37;;;;;;;15.63;6.22;;;;;;;33.02;32.48;97800.56;5069102;28;20079;-58
2023/05/15 08:36:08;;;;;;;11.95;5.38;;;;;;;33.22;31.64;97798.66;5088444;28;20586;-61
2023/05/15 08:38:41;;;;;;;11.73;5.97;;;;;;;33.14;32.50;97788.66;5084287;28;20047;-59
2023/05/15 08:41:24;;;;;;;13.65;6.10;;;;;;;33.24;32.18;97782.59;5067895;28;20058;-60
2023/05/15 08:44:09;;;;;;;18.75;5.90;;;;;;;33.29;31.56;97779.56;5082853;28;20051;-61
2023/05/15 08:46:42;;;;;;;16.38;5.30;;;;;;;33.40;29.95;97781.34;5070509;28;20040;-59
2023/05/15 08:49:50;;;;;;;13.15;5.40;;;;;;;33.34;30.16;97769.06;5087796;28;20051;-60
2023/05/15 08:52:25;;;;;;;11.65;5.93;;;;;;;33.21;29.52;97764.13;5081792;28;20055;-59
2023/05/15 08:54:58;;;;;;;18.65;6.57;;;;;;;33.52;28.52;97752.91;5085979;28;20056;-59
2023/05/15 08:57:28;;;;;;;16.33;6.22;;;;;;;33.44;29.46;97753.97;5080865;28;20127;-59
2023/05/15 08:59:59;;;;;;;12.90;6.30;;;;;;;33.28;27.19;97745.81;5084902;28;20048;-61
2023/05/15 09:02:30;;;;;;;17.17;5.93;;;;;;;33.28;28.55;97745.03;5077218;28;20052;-58
2023/05/15 09:05:02;;;;;;;10.68;4.57;;;;;;;33.03;28.83;97751.97;5058801;28;20488;-60
2023/05/15 09:07:33;;;;;;;12.25;4.40;;;;;;;33.02;25.34;97753.16;5072674;28;20040;-62
2023/05/15 09:10:05;;;;;;;11.60;4.60;;;;;;;33.09;27.73;97736.81;5086023;28;20055;-62
2023/05/15 09:12:43;;;;;;;15.55;4.22;;;;;;;33.15;23.75;97746.38;5070498;28;20144;-63
2023/05/15 09:15:16;;;;;;;16.83;4.32;;;;;;;33.12;27.24;97747.84;5069879;28;20044;-64
2023/05/15 09:17:48;;;;;;;12.23;3.83;;;;;;;33.14;27.03;97736.50;5052250;28;20066;-61
2023/05/15 09:20:37;;;;;;;8.82;3.58;;;;;;;33.12;28.71;97731.38;5079086;28;20519;-58
2023/05/15 09:23:24;;;;;;;15.23;4.00;;;;;;;33.14;27.07;97731.03;5062766;28;20039;-60
2023/05/15 09:25:57;;;;;;;8.85;4.00;;;;;;;33.03;27.21;97721.78;5077619;28;20044;-60
2023/05/15 09:28:32;;;;;;;10.38;3.40;;;;;;;32.71;27.91;97721.16;5077998;28;20055;-59
2023/05/15 09:31:05;;;;;;;8.70;3.47;;;;;;;32.36;26.70;97715.69;5078501;28;20147;-62
2023/05/15 09:33:38;;;;;;;16.13;4.25;;;;;;;32.62;26.87;97713.16;5083434;28;20127;-60
2023/05/15 09:36:09;;;;;;;9.95;3.33;;;;;;;32.80;26.07;97703.31;5086495;28;20043;-61
2023/05/15 09:38:47;;;;;;;13.25;4.70;;;;;;;32.73;28.75;97700.44;5084721;28;20044;-63
2023/05/15 09:41:25;;;;;;;9.30;3.50;;;;;;;32.72;29.51;97696.13;5059870;28;20051;-59
2023/05/15 09:43:55;;;;;;;9.63;3.60;;;;;;;32.84;28.98;97692.44;5078151;28;20060;-60
2023/05/15 09:46:26;;;;;;;9.88;4.00;;;;;;;32.95;28.48;97683.25;5060021;28;20102;-61
2023/05/15 09:48:59;;;;;;;10.13;3.63;;;;;;;32.78;27.96;97685.66;5078028;28;20490;-61
2023/05/15 09:51:33;;;;;;;12.10;3.28;;;;;;;32.69;26.55;97682.34;5061299;28;20491;-61
2023/05/15 09:54:03;;;;;;;16.40;4.00;;;;;;;32.82;28.04;97678.28;5080287;28;20048;-58
2023/05/15 09:56:34;;;;;;;6.20;2.90;;;;;;;32.85;27.66;97678.34;5087468;28;20047;-61
2023/05/15 09:59:06;;;;;;;12.70;3.40;;;;;;;32.79;27.61;97674.34;5076546;28;20048;-61
2023/05/15 10:01:36;;;;;;;13.43;4.93;;;;;;;32.83;26.32;97674.41;5061361;28;20419;-61
2023/05/15 10:04:07;;;;;;;9.93;3.97;;;;;;;32.67;26.25;97671.72;5079955;28;20052;-61
2023/05/15 10:06:40;;;;;;;8.45;3.90;;;;;;;32.70;27.38;97662.78;5076248;28;20485;-60
2023/05/15 10:09:12;;;;;;;11.70;4.00;;;;;;;32.61;26.36;97664.94;5075663;28;20059;-60
2023/05/15 10:11:52;;;;;;;8.48;3.88;;;;;;;32.68;27.06;97658.81;5078887;28;20131;-59
2023/05/15 10:14:27;;;;;;;9.77;4.43;;;;;;;32.75;27.41;97661.72;5079487;28;20052;-60
2023/05/15 10:16:58;;;;;;;12.15;4.30;;;;;;;32.76;26.97;97658.59;5075631;28;20047;-59
2023/05/15 10:19:29;;;;;;;8.43;3.83;;;;;;;32.94;25.54;97651.47;5075077;28;20126;-60
2023/05/15 10:22:02;;;;;;;9.40;4.47;;;;;;;32.86;28.20;97651.72;5086510;28;20044;-59
2023/05/15 10:24:35;;;;;;;8.13;3.60;;;;;;;33.21;21.29;97646.09;5067165;28;20047;-61
2023/05/15 10:27:08;;;;;;;11.80;3.60;;;;;;;33.53;20.12;97644.66;5078814;28;20194;-60
2023/05/15 10:29:40;;;;;;;7.47;3.65;;;;;;;33.52;27.08;97643.06;5084903;28;20468;-61
2023/05/15 10:32:15;;;;;;;9.45;3.83;;;;;;;33.65;20.87;97636.22;5085988;28;20067;-60
2023/05/15 10:34:48;;;;;;;;;;;;;;;33.84;17.86;97627.91;5086321;28;20539;-60
2023/05/15 10:37:20;;;;;;;13.80;4.28;;;;;;;34.01;18.88;97625.75;5057408;28;19981;-60
2023/05/15 10:39:57;;;;;;;7.68;4.13;;;;;;;34.10;22.79;97629.81;5085382;28;20063;-61
2023/05/15 10:42:31;;;;;;;9.10;4.70;;;;;;;34.33;21.93;97617.94;5021853;28;20546;-60
2023/05/15 10:45:02;;;;;;;6.22;3.55;;;;;;;34.21;25.90;97619.00;4698037;28;9999749;-60
2023/05/15 10:47:35;;;;;;;10.75;4.38;;;;;;;33.53;24.76;97616.41;5015390;28;20052;-60
2023/05/15 10:50:07;;;;;;;7.90;4.80;;;;;;;33.77;20.67;97613.25;5062707;28;20044;-61
2023/05/15 10:52:39;;;;;;;14.18;5.07;;;;;;;34.24;20.84;97610.00;5056537;28;20462;-60
2023/05/15 10:55:18;;;;;;;12.77;4.90;;;;;;;34.95;17.77;97608.03;5061746;28;20064;-60
2023/05/15 10:57:50;;;;;;;21.95;6.47;;;;;;;35.18;18.25;97607.88;5027577;28;20131;-60
2023/05/15 11:00:32;;;;;;;16.60;5.00;;;;;;;35.74;16.58;97594.53;5057200;28;20064;-60
2023/05/15 11:03:05;;;;;;;13.65;6.07;;;;;;;35.71;17.37;97608.31;5057344;28;20044;-62
2023/05/15 11:06:10;;;;;;;16.58;5.28;;;;;;;35.68;18.08;97609.06;5066558;28;20044;-61
2023/05/15 11:08:43;;;;;;;14.43;5.07;;;;;;;35.66;18.85;97605.91;5074040;28;20444;-60
2023/05/15 11:11:51;;;;;;;13.10;4.35;;;;;;;35.29;25.23;97598.53;5080580;28;20528;-60
2023/05/15 11:14:23;;;;;;;15.07;5.00;;;;;;;35.32;18.16;97597.75;5083114;28;20067;-59
2023/05/15 11:16:53;;;;;;;8.73;4.72;;;;;;;35.42;20.15;97599.81;5070919;28;20062;-58
2023/05/15 11:19:33;;;;;;;13.32;4.72;;;;;;;35.54;19.76;97593.19;5075673;28;20147;-60
2023/05/15 11:22:16;;;;;;;11.70;4.22;;;;;;;35.80;17.44;97590.25;5081490;28;20127;-61
2023/05/15 11:25:11;;;;;;;16.75;4.72;;;;;;;36.02;17.42;97591.16;5062316;28;20106;-61
2023/05/15 11:27:45;;;;;;;14.77;5.75;;;;;;;35.99;16.54;97594.66;5083001;28;20047;-58
2023/05/15 11:30:23;;;;;;;10.95;4.85;;;;;;;35.80;16.94;97590.25;5082324;28;20404;-59
2023/05/15 11:32:58;;;;;;;14.43;5.35;;;;;;;35.65;17.91;97590.53;5082174;28;20044;-59
2023/05/15 11:35:47;;;;;;;12.00;5.75;;;;;;;35.65;17.91;97585.03;5082797;28;20044;-58
2023/05/15 11:38:26;;;;;;;10.25;5.40;;;;;;;35.76;16.86;97592.19;5083176;28;20093;-60
2023/05/15 11:41:02;;;;;;;15.18;5.72;;;;;;;35.63;17.62;97590.88;5083872;28;20052;-60
2023/05/15 11:43:35;;;;;;;14.20;5.25;;;;;;;35.60;17.81;97586.94;5052446;28;20067;-60
2023/05/15 11:46:11;;;;;;;10.32;5.65;;;;;;;35.38;19.26;97599.00;5071161;28;20133;-59
2023/05/15 11:48:46;;;;;;;8.18;4.88;;;;;;;35.18;20.14;97591.38;5092058;28;20150;-61